< < Back
Terminal Aerodrome Forecast


Current Version              Previous Versions:   1  2  3  4  5  6  7  8  9  

Terminal Aerodrome Forecast

115
FTUS42 KGSP 190500 CCA
TAFHKY
TAF COR
KHKY 190556Z 1906/2006 03007KT 5SM -RA BR SCT025 OVC050
      TEMPO 1909/1912 3SM RA BR OVC020
     FM191200 02012G19KT 5SM -RA BR OVC035
     FM192300 04011KT P6SM VCSH OVC035
     FM200200 04009KT P6SM OVC035=

Latest METAR

499
SAUS70 KWBC 191200 RRA
MTRHKY
METAR KHKY 191153Z 00000KT 7SM -RA SCT045 BKN065 OVC090 08/07 A3017 RMK
AO2 SLP207 P0002 60027 70058 T00780067 10083 20078 53014


USA.gov is the U.S. government's official web portal to all federal, state and local government web resources and services.